Time;durP1;ratioP1;P1;durP2;ratioP2;P2;SDS_P1;SDS_P2;PMS_P1;PMS_P2;Temp;Humidity;BMP_temperature;BMP_pressure;BME280_temperature;BME280_humidity;BME280_pressure;Samples;Min_cycle;Max_cycle;Signal;HPM_P1;HPM_P2
2021/09/05 00:02:27;;;;;;;;;;;;;;;;;;4956377;28;19926;-90
2021/09/05 00:04:55;;;;;;;;;;;;;;;;;;4935555;28;20608;-88
2021/09/05 00:07:25;;;;;;;;;;;;;;;;;;4945583;28;19926;-87
2021/09/05 00:09:53;;;;;;;;;;;;;;;;;;4959576;28;19933;-88
2021/09/05 00:12:23;;;;;;;;;;;;;;;;;;4949711;28;19926;-88
2021/09/05 00:14:51;;;;;;;;;;;;;;;;;;4955829;28;19926;-88
2021/09/05 00:17:19;;;;;;;;;;;;;;;;;;4943933;28;19933;-87
2021/09/05 00:19:48;;;;;;;;;;;;;;;;;;4969531;28;19937;-87
2021/09/05 00:22:16;;;;;;;;;;;;;;;;;;4948437;28;19934;-87
2021/09/05 00:24:45;;;;;;;;;;;;;;;;;;4949868;28;20312;-86
2021/09/05 00:27:14;;;;;;;;;;;;;;;;;;4947243;28;19926;-88
2021/09/05 00:29:42;;;;;;;;;;;;;;;;;;4942613;28;20106;-87
2021/09/05 00:32:10;;;;;;;;;;;;;;;;;;4953488;28;20312;-86
2021/09/05 00:34:38;;;;;;;;;;;;;;;;;;4950208;28;19933;-88
2021/09/05 00:37:08;;;;;;;;;;;;;;;;;;4947055;28;19926;-87
2021/09/05 00:39:36;;;;;;;;;;;;;;;;;;4951058;28;19930;-88
2021/09/05 00:42:05;;;;;;;;;;;;;;;;;;4949004;28;19926;-87
2021/09/05 00:44:34;;;;;;;;;;;;;;;;;;4950479;28;19934;-88
2021/09/05 00:47:02;;;;;;;;;;;;;;;;;;4944494;28;19952;-89
2021/09/05 00:49:30;;;;;;;;;;;;;;;;;;4955715;28;19926;-88
2021/09/05 00:51:59;;;;;;;;;;;;;;;;;;4942283;28;19937;-88
2021/09/05 00:54:27;;;;;;;;;;;;;;;;;;4948583;28;19953;-87
2021/09/05 00:56:55;;;;;;;;;;;;;;;;;;4954804;28;19930;-87
2021/09/05 00:59:28;;;;;;;;;;;;;;;;;;4956161;28;19949;-87
2021/09/05 01:01:57;;;;;;;;;;;;;;;;;;4945274;28;19994;-88
2021/09/05 01:04:26;;;;;;;;;;;;;;;;;;4949269;28;19926;-88
2021/09/05 01:06:59;;;;;;;;;;;;;;;;;;4948732;28;20393;-87
2021/09/05 01:09:29;;;;;;;;;;;;;;;;;;4949658;28;19930;-86
2021/09/05 01:11:59;;;;;;;;;;;;;;;;;;4963082;28;20408;-87
2021/09/05 01:14:30;;;;;;;;;;;;;;;;;;4961663;28;19948;-87
2021/09/05 01:16:59;;;;;;;;;;;;;;;;;;4973337;28;19917;-86
2021/09/05 01:19:47;;;;;;;;;;;;;;;;;;4974614;28;19926;-88
2021/09/05 01:22:21;;;;;;;;;;;;;;;;;;4956974;28;19926;-88
2021/09/05 01:25:09;;;;;;;;;;;;;;;;;;4956258;28;19949;-88
2021/09/05 01:27:56;;;;;;;;;;;;;;;;;;4959200;28;20308;-88
2021/09/05 01:30:43;;;;;;;;;;;;;;;;;;4965958;28;19933;-85
2021/09/05 01:33:41;;;;;;;;;;;;;;;;;;4950285;28;19930;-87
2021/09/05 01:36:28;;;;;;;;;;;;;;;;;;4972476;28;19933;-88
2021/09/05 01:39:15;;;;;;;;;;;;;;;;;;4961557;28;19930;-88
2021/09/05 01:42:02;;;;;;;;;;;;;;;;;;4955375;28;19926;-88
2021/09/05 01:44:48;;;;;;;;;;;;;;;;;;4941128;28;19929;-88
2021/09/05 01:47:48;;;;;;;;;;;;;;;;;;4935441;28;20942;-88
2021/09/05 01:50:34;;;;;;;;;;;;;;;;;;4948483;28;19933;-88
2021/09/05 01:53:34;;;;;;;;;;;;;;;;;;4943889;28;19927;-86
2021/09/05 01:56:20;;;;;;;;;;;;;;;;;;4956523;28;19926;-87
2021/09/05 01:59:07;;;;;;;;;;;;;;;;;;4960145;28;19930;-88
2021/09/05 02:02:15;;;;;;;;;;;;;;;;;;4959848;28;19926;-86
2021/09/05 02:05:10;;;;;;;;;;;;;;;;;;4950243;28;19925;-86
2021/09/05 02:08:04;;;;;;;;;;;;;;;;;;4962618;28;19926;-88
2021/09/05 02:10:51;;;;;;;;;;;;;;;;;;4981865;28;19933;-87
2021/09/05 02:13:38;;;;;;;;;;;;;;;;;;4958362;28;19929;-89
2021/09/05 02:16:25;;;;;;;;;;;;;;;;;;4959189;28;19933;-88
2021/09/05 02:19:11;;;;;;;;;;;;;;;;;;4942598;28;19925;-89
2021/09/05 02:21:58;;;;;;;;;;;;;;;;;;4977137;28;19930;-87
2021/09/05 02:24:54;;;;;;;;;;;;;;;;;;4947082;28;19926;-88
2021/09/05 02:27:42;;;;;;;;;;;;;;;;;;4960894;28;23110;-87
2021/09/05 02:30:27;;;;;;;;;;;;;;;;;;4958096;28;19934;-87
2021/09/05 02:33:11;;;;;;;;;;;;;;;;;;4953605;28;19926;-87
2021/09/05 02:36:04;;;;;;;;;;;;;;;;;;4957333;28;19941;-86
2021/09/05 02:38:53;;;;;;;;;;;;;;;;;;4952944;28;19926;-87
2021/09/05 02:41:53;;;;;;;;;;;;;;;;;;4958513;28;19934;-87
2021/09/05 02:44:53;;;;;;;;;;;;;;;;;;4958233;28;19930;-87
2021/09/05 02:47:47;;;;;;;;;;;;;;;;;;4976133;28;20293;-86
2021/09/05 02:50:51;;;;;;;;;;;;;;;;;;4923842;29;19935;-88
2021/09/05 02:53:56;;;;;;;;;;;;;;;;;;4957048;28;19930;-87
2021/09/05 02:57:02;;;;;;;;;;;;;;;;;;4950237;28;19933;-87
2021/09/05 02:59:59;;;;;;;;;;;;;;;;;;4960121;28;19929;-90
2021/09/05 03:03:00;;;;;;;;;;;;;;;;;;4942153;28;19925;-90
2021/09/05 03:05:45;;;;;;;;;;;;;;;;;;4940853;28;19934;-91
2021/09/05 03:08:33;;;;;;;;;;;;;;;;;;4956742;28;20310;-91
2021/09/05 03:11:19;;;;;;;;;;;;;;;;;;4935451;28;19945;-90
2021/09/05 03:14:18;;;;;;;;;;;;;;;;;;4939512;28;20048;-90
2021/09/05 03:17:06;;;;;;;;;;;;;;;;;;4938101;28;20293;-90
2021/09/05 03:19:58;;;;;;;;;;;;;;;;;;4948510;28;19934;-90
2021/09/05 03:22:58;;;;;;;;;;;;;;;;;;4920428;28;20269;-90
2021/09/05 03:25:46;;;;;;;;;;;;;;;;;;4967454;28;19937;-90
2021/09/05 03:28:34;;;;;;;;;;;;;;;;;;4953972;28;20311;-90
2021/09/05 03:31:20;;;;;;;;;;;;;;;;;;4956086;28;20154;-90
2021/09/05 03:34:13;;;;;;;;;;;;;;;;;;4940180;28;19934;-90
2021/09/05 03:37:00;;;;;;;;;;;;;;;;;;4950773;28;19938;-90
2021/09/05 03:39:53;;;;;;;;;;;;;;;;;;4951550;28;19926;-90
2021/09/05 03:42:50;;;;;;;;;;;;;;;;;;4979075;28;20157;-89
2021/09/05 03:45:52;;;;;;;;;;;;;;;;;;4940646;28;22683;-90
2021/09/05 03:48:40;;;;;;;;;;;;;;;;;;4949369;28;19930;-87
2021/09/05 03:51:11;;;;;;;;;;;;;;;;;;4935370;28;19926;-89
2021/09/05 03:53:47;;;;;;;;;;;;;;;;;;4945098;28;19934;-89
2021/09/05 03:56:18;;;;;;;;;;;;;;;;;;4939249;28;20269;-89
2021/09/05 03:58:48;;;;;;;;;;;;;;;;;;4944992;28;19937;-89
2021/09/05 04:01:19;;;;;;;;;;;;;;;;;;4947072;28;20927;-89
2021/09/05 04:03:56;;;;;;;;;;;;;;;;;;4951214;28;19926;-90
2021/09/05 04:06:25;;;;;;;;;;;;;;;;;;4937402;28;19930;-87
2021/09/05 04:08:55;;;;;;;;;;;;;;;;;;4952597;28;19934;-88
2021/09/05 04:11:23;;;;;;;;;;;;;;;;;;4953454;28;19952;-89
2021/09/05 04:13:52;;;;;;;;;;;;;;;;;;4951912;28;19945;-89
2021/09/05 04:16:21;;;;;;;;;;;;;;;;;;4945918;28;19926;-88
2021/09/05 04:18:49;;;;;;;;;;;;;;;;;;4942334;28;20320;-89
2021/09/05 04:21:18;;;;;;;;;;;;;;;;;;4945332;28;20428;-89
2021/09/05 04:23:46;;;;;;;;;;;;;;;;;;4951106;28;19941;-88
2021/09/05 04:26:14;;;;;;;;;;;;;;;;;;4931547;28;19926;-89
2021/09/05 04:28:42;;;;;;;;;;;;;;;;;;4940588;28;19934;-88
2021/09/05 04:31:11;;;;;;;;;;;;;;;;;;4940191;28;19933;-87
2021/09/05 04:33:40;;;;;;;;;;;;;;;;;;4944206;28;19934;-87
2021/09/05 04:36:09;;;;;;;;;;;;;;;;;;4943206;28;20277;-89
2021/09/05 04:38:37;;;;;;;;;;;;;;;;;;4956725;28;19926;-89
2021/09/05 04:41:05;;;;;;;;;;;;;;;;;;4977261;28;19925;-89
2021/09/05 04:43:33;;;;;;;;;;;;;;;;;;4964688;28;19941;-90
2021/09/05 04:46:02;;;;;;;;;;;;;;;;;;4952542;28;19936;-89
2021/09/05 04:48:31;;;;;;;;;;;;;;;;;;4946275;28;19945;-89
2021/09/05 04:51:00;;;;;;;;;;;;;;;;;;4935459;28;19926;-89
2021/09/05 04:53:30;;;;;;;;;;;;;;;;;;4955245;28;19934;-90
2021/09/05 04:55:58;;;;;;;;;;;;;;;;;;4951331;28;19934;-89
2021/09/05 04:58:28;;;;;;;;;;;;;;;;;;4936226;28;19941;-90
2021/09/05 05:00:56;;;;;;;;;;;;;;;;;;4957357;28;19926;-89
2021/09/05 05:03:25;;;;;;;;;;;;;;;;;;4962159;28;20304;-90
2021/09/05 05:06:12;;;;;;;;;;;;;;;;;;4953702;28;19933;-90
2021/09/05 05:08:40;;;;;;;;;;;;;;;;;;4945224;28;20396;-87
2021/09/05 05:11:12;;;;;;;;;;;;;;;;;;4947773;28;19926;-88
2021/09/05 05:13:40;;;;;;;;;;;;;;;;;;4947574;28;20409;-89
2021/09/05 05:16:09;;;;;;;;;;;;;;;;;;4963810;28;20404;-87
2021/09/05 05:18:37;;;;;;;;;;;;;;;;;;4957107;28;19926;-88
2021/09/05 05:21:05;;;;;;;;;;;;;;;;;;4960327;28;19956;-90
2021/09/05 05:23:35;;;;;;;;;;;;;;;;;;4955604;28;19930;-89
2021/09/05 05:26:03;;;;;;;;;;;;;;;;;;4941804;28;19929;-88
2021/09/05 05:28:31;;;;;;;;;;;;;;;;;;4938205;28;20436;-88
2021/09/05 05:30:59;;;;;;;;;;;;;;;;;;4949285;28;19926;-89
2021/09/05 05:33:28;;;;;;;;;;;;;;;;;;4951141;28;19934;-89
2021/09/05 05:35:56;;;;;;;;;;;;;;;;;;4951543;28;19932;-88
2021/09/05 05:38:24;;;;;;;;;;;;;;;;;;4941706;28;19930;-88
2021/09/05 05:40:54;;;;;;;;;;;;;;;;;;4947228;28;19925;-88
2021/09/05 05:43:22;;;;;;;;;;;;;;;;;;4955775;28;20311;-88
2021/09/05 05:45:50;;;;;;;;;;;;;;;;;;4943111;28;19932;-88
2021/09/05 05:48:19;;;;;;;;;;;;;;;;;;4942433;28;19926;-88
2021/09/05 05:50:48;;;;;;;;;;;;;;;;;;4952786;28;20301;-86
2021/09/05 05:53:16;;;;;;;;;;;;;;;;;;4954333;28;19941;-88
2021/09/05 05:55:44;;;;;;;;;;;;;;;;;;4946574;28;20579;-88
2021/09/05 05:58:14;;;;;;;;;;;;;;;;;;4952057;28;19926;-89
2021/09/05 06:00:49;;;;;;;;;;;;;;;;;;4950361;28;20408;-87
2021/09/05 06:03:18;;;;;;;;;;;;;;;;;;4943589;28;19933;-87
2021/09/05 06:05:46;;;;;;;;;;;;;;;;;;4955764;28;19917;-86
2021/09/05 06:08:14;;;;;;;;;;;;;;;;;;4981349;28;19930;-87
2021/09/05 06:10:43;;;;;;;;;;;;;;;;;;4957795;28;19926;-88
2021/09/05 06:13:11;;;;;;;;;;;;;;;;;;4958855;28;19933;-86
2021/09/05 06:15:41;;;;;;;;;;;;;;;;;;4948596;28;19926;-88
2021/09/05 06:18:09;;;;;;;;;;;;;;;;;;4950654;28;19948;-88
2021/09/05 06:20:37;;;;;;;;;;;;;;;;;;4939098;28;19926;-88
2021/09/05 06:23:06;;;;;;;;;;;;;;;;;;4958089;28;20186;-88
2021/09/05 06:25:34;;;;;;;;;;;;;;;;;;4963773;28;19930;-89
2021/09/05 06:28:02;;;;;;;;;;;;;;;;;;4946977;28;20404;-89
2021/09/05 06:30:30;;;;;;;;;;;;;;;;;;4962036;28;19926;-88
2021/09/05 06:33:00;;;;;;;;;;;;;;;;;;4943070;28;19930;-87
2021/09/05 06:35:31;;;;;;;;;;;;;;;;;;4947399;28;19940;-86
2021/09/05 06:37:59;;;;;;;;;;;;;;;;;;4948976;28;19926;-86
2021/09/05 06:40:27;;;;;;;;;;;;;;;;;;4940905;28;19934;-88
2021/09/05 06:42:56;;;;;;;;;;;;;;;;;;4947161;28;19933;-88
2021/09/05 06:45:27;;;;;;;;;;;;;;;;;;4960833;28;20422;-87
2021/09/05 06:47:56;;;;;;;;;;;;;;;;;;4948690;28;20304;-86
2021/09/05 06:50:25;;;;;;;;;;;;;;;;;;4938423;28;19933;-88
2021/09/05 06:52:54;;;;;;;;;;;;;;;;;;4958219;28;19998;-88
2021/09/05 06:55:22;;;;;;;;;;;;;;;;;;4942859;28;19926;-88
2021/09/05 06:57:50;;;;;;;;;;;;;;;;;;4954119;28;19926;-86
2021/09/05 07:00:18;;;;;;;;;;;;;;;;;;4947017;28;19930;-86
2021/09/05 07:02:47;;;;;;;;;;;;;;;;;;4940566;28;19934;-87
2021/09/05 07:05:15;;;;;;;;;;;;;;;;;;4951525;28;19926;-88
2021/09/05 07:07:45;;;;;;;;;;;;;;;;;;4943582;28;19926;-86
2021/09/05 07:10:13;;;;;;;;;;;;;;;;;;4946422;28;19926;-88
2021/09/05 07:12:42;;;;;;;;;;;;;;;;;;4949275;28;19926;-87
2021/09/05 07:15:11;;;;;;;;;;;;;;;;;;4942275;28;20439;-88
2021/09/05 07:17:39;;;;;;;;;;;;;;;;;;4965192;28;19934;-88
2021/09/05 07:20:08;;;;;;;;;;;;;;;;;;4942182;28;19937;-88
2021/09/05 07:22:37;;;;;;;;;;;;;;;;;;4945870;28;19937;-89
2021/09/05 07:25:08;;;;;;;;;;;;;;;;;;4955956;28;19934;-87
2021/09/05 07:27:36;;;;;;;;;;;;;;;;;;4967033;28;19934;-88
2021/09/05 07:30:05;;;;;;;;;;;;;;;;;;4942455;28;20421;-87
2021/09/05 07:32:34;;;;;;;;;;;;;;;;;;4943585;28;19926;-88
2021/09/05 07:35:02;;;;;;;;;;;;;;;;;;4945820;28;19941;-87
2021/09/05 07:37:30;;;;;;;;;;;;;;;;;;4938623;28;19934;-87
2021/09/05 07:39:59;;;;;;;;;;;;;;;;;;4948600;28;20396;-87
2021/09/05 07:42:28;;;;;;;;;;;;;;;;;;4944528;28;19938;-88
2021/09/05 07:44:58;;;;;;;;;;;;;;;;;;4958611;28;19941;-87
2021/09/05 07:47:26;;;;;;;;;;;;;;;;;;4937248;28;20246;-87
2021/09/05 07:49:54;;;;;;;;;;;;;;;;;;4951805;28;19909;-85
2021/09/05 07:52:22;;;;;;;;;;;;;;;;;;4953295;28;20055;-87
2021/09/05 07:54:51;;;;;;;;;;;;;;;;;;4971246;28;19933;-88
2021/09/05 07:57:21;;;;;;;;;;;;;;;;;;4965222;28;19937;-88
2021/09/05 07:59:51;;;;;;;;;;;;;;;;;;4933002;28;19930;-88
2021/09/05 08:02:19;;;;;;;;;;;;;;;;;;4954244;28;19937;-88
2021/09/05 08:04:48;;;;;;;;;;;;;;;;;;4946834;28;19933;-89
2021/09/05 08:07:16;;;;;;;;;;;;;;;;;;4957955;28;19926;-89
2021/09/05 08:09:44;;;;;;;;;;;;;;;;;;4942678;28;19927;-89
2021/09/05 08:12:13;;;;;;;;;;;;;;;;;;4962555;28;19956;-89
2021/09/05 08:14:41;;;;;;;;;;;;;;;;;;4947194;28;19932;-89
2021/09/05 08:17:11;;;;;;;;;;;;;;;;;;4967706;28;19937;-89
2021/09/05 08:19:39;;;;;;;;;;;;;;;;;;4964316;28;19937;-88
2021/09/05 08:22:07;;;;;;;;;;;;;;;;;;4945713;28;19930;-89
2021/09/05 08:24:36;;;;;;;;;;;;;;;;;;4964533;28;20274;-88
2021/09/05 08:27:05;;;;;;;;;;;;;;;;;;4945885;28;20609;-88
2021/09/05 08:29:33;;;;;;;;;;;;;;;;;;4962470;28;19933;-87
2021/09/05 08:32:01;;;;;;;;;;;;;;;;;;4986977;28;19909;-87
2021/09/05 08:34:33;;;;;;;;;;;;;;;;;;4978991;28;19910;-88
2021/09/05 08:37:02;;;;;;;;;;;;;;;;;;4949604;28;19926;-88
2021/09/05 08:39:30;;;;;;;;;;;;;;;;;;4957342;28;20416;-88
2021/09/05 08:41:59;;;;;;;;;;;;;;;;;;4964727;28;20043;-88
2021/09/05 08:44:27;;;;;;;;;;;;;;;;;;4950995;28;19930;-88
2021/09/05 08:46:59;;;;;;;;;;;;;;;;;;4959091;28;19925;-88
2021/09/05 08:49:27;;;;;;;;;;;;;;;;;;4966492;28;19929;-88
2021/09/05 08:51:57;;;;;;;;;;;;;;;;;;4940614;28;20392;-88
2021/09/05 08:54:26;;;;;;;;;;;;;;;;;;4954736;28;19949;-88
2021/09/05 08:56:54;;;;;;;;;;;;;;;;;;4948461;28;19925;-88
2021/09/05 08:59:22;;;;;;;;;;;;;;;;;;4942106;28;19926;-89
2021/09/05 09:01:54;;;;;;;;;;;;;;;;;;4949917;28;19933;-89
2021/09/05 09:04:23;;;;;;;;;;;;;;;;;;4967399;28;20134;-89
2021/09/05 09:06:54;;;;;;;;;;;;;;;;;;4943758;28;19933;-88
2021/09/05 09:09:24;;;;;;;;;;;;;;;;;;4948715;28;19930;-88
2021/09/05 09:11:53;;;;;;;;;;;;;;;;;;4943263;28;19933;-87
2021/09/05 09:14:23;;;;;;;;;;;;;;;;;;4952082;28;19933;-87
2021/09/05 09:16:51;;;;;;;;;;;;;;;;;;4949495;28;19937;-88
2021/09/05 09:19:22;;;;;;;;;;;;;;;;;;4962647;28;20200;-88
2021/09/05 09:21:51;;;;;;;;;;;;;;;;;;4946977;28;20385;-87
2021/09/05 09:24:21;;;;;;;;;;;;;;;;;;4950076;28;20423;-88
2021/09/05 09:26:58;;;;;;;;;;;;;;;;;;4983099;28;19926;-88
2021/09/05 09:29:26;;;;;;;;;;;;;;;;;;4943949;28;19974;-88
2021/09/05 09:31:59;;;;;;;;;;;;;;;;;;4946031;28;20388;-88
2021/09/05 09:34:27;;;;;;;;;;;;;;;;;;4944910;28;19931;-88
2021/09/05 09:36:56;;;;;;;;;;;;;;;;;;4946647;28;19931;-87
2021/09/05 09:39:25;;;;;;;;;;;;;;;;;;4948003;28;20412;-87
2021/09/05 09:41:53;;;;;;;;;;;;;;;;;;4945583;28;19956;-87
2021/09/05 09:44:23;;;;;;;;;;;;;;;;;;4949770;28;19926;-88
2021/09/05 09:46:51;;;;;;;;;;;;;;;;;;4963112;28;19930;-87
2021/09/05 09:49:20;;;;;;;;;;;;;;;;;;4967711;28;19930;-86
2021/09/05 09:51:51;;;;;;;;;;;;;;;;;;4957339;28;19930;-87
2021/09/05 09:54:19;;;;;;;;;;;;;;;;;;4933788;28;19941;-87
2021/09/05 09:56:47;;;;;;;;;;;;;;;;;;4976410;28;19931;-87
2021/09/05 09:59:16;;;;;;;;;;;;;;;;;;4944508;28;19926;-84
2021/09/05 10:01:47;;;;;;;;;;;;;;;;;;4946802;28;19934;-86
2021/09/05 10:04:15;;;;;;;;;;;;;;;;;;4945338;28;19933;-86
2021/09/05 10:06:43;;;;;;;;;;;;;;;;;;4972352;28;20000;-86
2021/09/05 10:09:13;;;;;;;;;;;;;;;;;;4947493;28;19934;-86
2021/09/05 10:11:41;;;;;;;;;;;;;;;;;;4954044;28;20284;-88
2021/09/05 10:14:10;;;;;;;;;;;;;;;;;;4945333;28;19934;-87
2021/09/05 10:16:40;;;;;;;;;;;;;;;;;;4938072;28;20404;-86
2021/09/05 10:19:10;;;;;;;;;;;;;;;;;;4937007;28;19926;-86
2021/09/05 10:21:39;;;;;;;;;;;;;;;;;;4943528;28;20282;-86
2021/09/05 10:24:13;;;;;;;;;;;;;;;;;;4956188;28;20384;-85
2021/09/05 10:26:56;;;;;;;;;;;;;;;;;;4946238;28;19926;-86
2021/09/05 10:29:24;;;;;;;;;;;;;;;;;;4949504;28;19940;-85
2021/09/05 10:31:53;;;;;;;;;;;;;;;;;;4941600;28;20541;-84
2021/09/05 10:34:32;;;;;;;;;;;;;;;;;;4949274;28;19926;-85
2021/09/05 10:37:04;;;;;;;;;;;;;;;;;;4951614;28;19926;-84
2021/09/05 10:39:33;;;;;;;;;;;;;;;;;;4963085;28;19927;-83
2021/09/05 10:42:01;;;;;;;;;;;;;;;;;;4940537;28;19925;-84
2021/09/05 10:44:29;;;;;;;;;;;;;;;;;;4950024;28;19929;-85
2021/09/05 10:46:58;;;;;;;;;;;;;;;;;;4944297;28;19926;-85
2021/09/05 10:49:40;;;;;;;;;;;;;;;;;;4943418;28;19934;-85
2021/09/05 10:52:08;;;;;;;;;;;;;;;;;;4934859;28;19926;-85
2021/09/05 10:54:44;;;;;;;;;;;;;;;;;;4953460;28;19926;-84
2021/09/05 10:57:13;;;;;;;;;;;;;;;;;;4977390;28;19933;-83
2021/09/05 10:59:41;;;;;;;;;;;;;;;;;;4978460;28;19922;-82
2021/09/05 11:02:10;;;;;;;;;;;;;;;;;;4955228;28;19929;-84
2021/09/05 11:04:43;;;;;;;;;;;;;;;;;;4944513;28;19926;-85
2021/09/05 11:07:12;;;;;;;;;;;;;;;;;;4955201;28;19930;-84
2021/09/05 11:09:45;;;;;;;;;;;;;;;;;;4969131;28;20498;-85
2021/09/05 11:12:33;;;;;;;;;;;;;;;;;;4979247;28;19926;-84
2021/09/05 11:15:26;;;;;;;;;;;;;;;;;;4947868;28;19930;-85
2021/09/05 11:17:56;;;;;;;;;;;;;;;;;;4937069;28;19934;-85
2021/09/05 11:20:27;;;;;;;;;;;;;;;;;;4960258;28;19926;-84
2021/09/05 11:22:59;;;;;;;;;;;;;;;;;;4946404;28;19937;-85
2021/09/05 11:25:28;;;;;;;;;;;;;;;;;;4978457;28;19937;-84
2021/09/05 11:27:58;;;;;;;;;;;;;;;;;;4946630;28;19933;-84
2021/09/05 11:30:29;;;;;;;;;;;;;;;;;;4953835;28;19934;-84
2021/09/05 11:32:58;;;;;;;;;;;;;;;;;;4964074;28;19938;-84
2021/09/05 11:35:33;;;;;;;;;;;;;;;;;;4950294;28;19936;-84
2021/09/05 11:38:02;;;;;;;;;;;;;;;;;;4957542;28;19957;-85
2021/09/05 11:40:31;;;;;;;;;;;;;;;;;;4950255;28;19949;-85
2021/09/05 11:43:00;;;;;;;;;;;;;;;;;;4945346;28;19931;-84
2021/09/05 11:45:28;;;;;;;;;;;;;;;;;;4963462;28;19930;-84
2021/09/05 11:48:01;;;;;;;;;;;;;;;;;;4954667;28;19926;-84
2021/09/05 11:50:32;;;;;;;;;;;;;;;;;;4951689;28;20738;-84
2021/09/05 11:53:03;;;;;;;;;;;;;;;;;;4956331;28;19933;-83
2021/09/05 11:55:36;;;;;;;;;;;;;;;;;;4961752;28;20289;-86
2021/09/05 11:58:06;;;;;;;;;;;;;;;;;;4951618;28;19925;-85
2021/09/05 12:00:38;;;;;;;;;;;;;;;;;;4986458;28;19933;-83
2021/09/05 12:03:11;;;;;;;;;;;;;;;;;;4953693;28;20467;-83
2021/09/05 12:10:11;;;;;;;;;;;;;;;;;;4989400;28;19924;-85
2021/09/05 12:12:40;;;;;;;;;;;;;;;;;;4962355;28;19933;-85
2021/09/05 12:15:16;;;;;;;;;;;;;;;;;;4966228;28;20386;-84
2021/09/05 12:17:45;;;;;;;;;;;;;;;;;;4985554;28;20394;-84
2021/09/05 12:20:15;;;;;;;;;;;;;;;;;;4960483;28;20107;-84
2021/09/05 12:22:45;;;;;;;;;;;;;;;;;;4967668;28;19927;-84
2021/09/05 12:25:18;;;;;;;;;;;;;;;;;;4964383;28;19930;-84
2021/09/05 12:27:54;;;;;;;;;;;;;;;;;;4951391;28;19926;-84
2021/09/05 12:30:24;;;;;;;;;;;;;;;;;;4962521;28;19933;-84
2021/09/05 12:33:07;;;;;;;;;;;;;;;;;;4952101;28;19930;-84
2021/09/05 12:35:36;;;;;;;;;;;;;;;;;;4956059;28;20385;-84
2021/09/05 12:38:11;;;;;;;;;;;;;;;;;;4970185;28;19933;-84
2021/09/05 12:40:42;;;;;;;;;;;;;;;;;;4964077;28;19918;-84
2021/09/05 12:43:13;;;;;;;;;;;;;;;;;;4947879;28;19934;-84
2021/09/05 12:45:50;;;;;;;;;;;;;;;;;;4960795;28;19933;-84
2021/09/05 12:48:21;;;;;;;;;;;;;;;;;;4938739;28;20340;-84
2021/09/05 12:50:59;;;;;;;;;;;;;;;;;;4944878;28;19930;-84
2021/09/05 12:53:28;;;;;;;;;;;;;;;;;;4942125;28;19937;-84
2021/09/05 12:55:59;;;;;;;;;;;;;;;;;;4945560;28;19934;-84
2021/09/05 12:58:27;;;;;;;;;;;;;;;;;;4957133;28;19958;-83
2021/09/05 13:00:56;;;;;;;;;;;;;;;;;;4983837;28;19929;-84
2021/09/05 13:03:26;;;;;;;;;;;;;;;;;;4972287;28;19926;-84
2021/09/05 13:05:55;;;;;;;;;;;;;;;;;;4948459;28;19933;-84
2021/09/05 13:08:24;;;;;;;;;;;;;;;;;;4947275;28;19930;-84
2021/09/05 13:10:54;;;;;;;;;;;;;;;;;;4962069;28;20123;-84
2021/09/05 13:13:24;;;;;;;;;;;;;;;;;;4947564;28;19934;-85
2021/09/05 13:15:53;;;;;;;;;;;;;;;;;;4950166;28;20358;-84
2021/09/05 13:18:22;;;;;;;;;;;;;;;;;;4957690;28;19927;-84
2021/09/05 13:20:51;;;;;;;;;;;;;;;;;;4954810;28;19937;-85
2021/09/05 13:23:19;;;;;;;;;;;;;;;;;;4970074;28;19925;-83
2021/09/05 13:25:48;;;;;;;;;;;;;;;;;;4967749;28;19936;-84
2021/09/05 13:28:17;;;;;;;;;;;;;;;;;;4974627;28;19926;-85
2021/09/05 13:30:48;;;;;;;;;;;;;;;;;;4956980;28;19926;-85
2021/09/05 13:33:17;;;;;;;;;;;;;;;;;;4951469;28;20269;-85
2021/09/05 13:35:46;;;;;;;;;;;;;;;;;;4954695;28;19930;-85
2021/09/05 13:38:16;;;;;;;;;;;;;;;;;;4954609;28;19926;-84
2021/09/05 13:40:45;;;;;;;;;;;;;;;;;;4959966;28;19925;-85
2021/09/05 13:43:13;;;;;;;;;;;;;;;;;;4961873;28;19936;-84
2021/09/05 13:45:42;;;;;;;;;;;;;;;;;;4961109;28;19941;-84
2021/09/05 13:48:13;;;;;;;;;;;;;;;;;;4966579;28;19930;-84
2021/09/05 13:50:41;;;;;;;;;;;;;;;;;;4974237;28;19927;-84
2021/09/05 13:53:10;;;;;;;;;;;;;;;;;;4959663;28;19930;-84
2021/09/05 13:55:39;;;;;;;;;;;;;;;;;;4951226;28;19933;-83
2021/09/05 13:58:07;;;;;;;;;;;;;;;;;;4951138;28;20036;-83
2021/09/05 14:00:35;;;;;;;;;;;;;;;;;;4947558;28;19930;-82
2021/09/05 14:03:04;;;;;;;;;;;;;;;;;;4963866;28;19930;-84
2021/09/05 14:05:34;;;;;;;;;;;;;;;;;;4952204;28;20360;-85
2021/09/05 14:08:03;;;;;;;;;;;;;;;;;;4937913;28;19933;-83
2021/09/05 14:10:33;;;;;;;;;;;;;;;;;;4958035;28;19926;-85
2021/09/05 14:13:02;;;;;;;;;;;;;;;;;;4971422;28;20333;-83
2021/09/05 14:15:31;;;;;;;;;;;;;;;;;;4953686;28;20400;-84
2021/09/05 14:18:02;;;;;;;;;;;;;;;;;;4954587;28;19941;-85
2021/09/05 14:20:30;;;;;;;;;;;;;;;;;;4951493;28;19927;-83
2021/09/05 14:23:00;;;;;;;;;;;;;;;;;;4949202;28;20212;-84
2021/09/05 14:25:28;;;;;;;;;;;;;;;;;;4947312;28;19934;-84
2021/09/05 14:28:00;;;;;;;;;;;;;;;;;;4955061;28;19949;-84
2021/09/05 14:30:34;;;;;;;;;;;;;;;;;;4965187;28;19941;-84
2021/09/05 14:33:16;;;;;;;;;;;;;;;;;;4944964;28;19933;-85
2021/09/05 14:49:48;;;;;;;;;;;;;;;;;;4953840;28;19933;-85
2021/09/05 14:55:05;;;;;;;;;;;;;;;;;;4958820;28;20308;-84
2021/09/05 14:57:34;;;;;;;;;;;;;;;;;;4966456;28;19933;-88
2021/09/05 15:00:04;;;;;;;;;;;;;;;;;;4951965;28;20028;-84
2021/09/05 15:02:38;;;;;;;;;;;;;;;;;;4949011;28;19926;-84
2021/09/05 15:05:30;;;;;;;;;;;;;;;;;;4947390;28;19930;-85
2021/09/05 15:11:01;;;;;;;;;;;;;;;;;;4926490;28;20271;-85
2021/09/05 15:13:30;;;;;;;;;;;;;;;;;;4959639;28;19933;-85
2021/09/05 15:15:58;;;;;;;;;;;;;;;;;;4948831;28;19993;-86
2021/09/05 15:18:28;;;;;;;;;;;;;;;;;;4945327;28;20411;-85
2021/09/05 15:20:57;;;;;;;;;;;;;;;;;;4950831;28;20289;-85
2021/09/05 15:23:28;;;;;;;;;;;;;;;;;;4948586;28;19932;-84
2021/09/05 15:25:59;;;;;;;;;;;;;;;;;;4967081;28;19936;-85
2021/09/05 15:28:30;;;;;;;;;;;;;;;;;;4972172;28;19926;-86
2021/09/05 15:31:04;;;;;;;;;;;;;;;;;;4967608;28;19934;-85
2021/09/05 15:33:47;;;;;;;;;;;;;;;;;;4964435;28;19932;-85
2021/09/05 15:50:52;;;;;;;;;;;;;;;;;;4938626;28;19933;-84
2021/09/05 15:56:05;;;;;;;;;;;;;;;;;;4960172;28;19933;-84
2021/09/05 15:58:38;;;;;;;;;;;;;;;;;;4964132;28;19927;-84
2021/09/05 16:01:18;;;;;;;;;;;;;;;;;;4951960;28;19937;-84
2021/09/05 16:03:58;;;;;;;;;;;;;;;;;;4954628;28;19941;-84
2021/09/05 16:06:42;;;;;;;;;;;;;;;;;;4940289;28;19926;-84
2021/09/05 16:17:32;;;;;;;;;;;;;;;;;;4945229;28;19934;-85
2021/09/05 16:20:01;;;;;;;;;;;;;;;;;;4964650;28;19925;-85
2021/09/05 16:22:30;;;;;;;;;;;;;;;;;;4944695;28;19926;-85
2021/09/05 16:25:02;;;;;;;;;;;;;;;;;;4942781;28;20356;-85
2021/09/05 16:27:31;;;;;;;;;;;;;;;;;;4964993;28;19933;-85
2021/09/05 16:30:06;;;;;;;;;;;;;;;;;;4960263;28;19930;-85
2021/09/05 16:32:41;;;;;;;;;;;;;;;;;;4987886;28;20087;-85
2021/09/05 16:35:14;;;;;;;;;;;;;;;;;;4944727;28;20021;-85
2021/09/05 16:38:02;;;;;;;;;;;;;;;;;;4943223;28;19926;-85
2021/09/05 16:40:31;;;;;;;;;;;;;;;;;;4951822;28;19933;-85
2021/09/05 16:43:01;;;;;;;;;;;;;;;;;;4953588;28;19945;-85
2021/09/05 16:45:31;;;;;;;;;;;;;;;;;;4948562;28;19933;-85
2021/09/05 16:47:59;;;;;;;;;;;;;;;;;;4950560;28;19937;-85
2021/09/05 16:50:28;;;;;;;;;;;;;;;;;;4968127;28;20308;-85
2021/09/05 16:52:59;;;;;;;;;;;;;;;;;;4955134;28;19929;-85
2021/09/05 16:55:28;;;;;;;;;;;;;;;;;;4954084;28;19937;-85
2021/09/05 16:57:57;;;;;;;;;;;;;;;;;;4967534;28;19925;-86
2021/09/05 17:00:25;;;;;;;;;;;;;;;;;;4960349;28;19941;-85
2021/09/05 17:02:56;;;;;;;;;;;;;;;;;;4956959;28;19941;-85
2021/09/05 17:05:25;;;;;;;;;;;;;;;;;;4969810;28;19926;-85
2021/09/05 17:07:54;;;;;;;;;;;;;;;;;;4946910;28;19933;-86
2021/09/05 17:10:22;;;;;;;;;;;;;;;;;;4949851;28;19925;-86
2021/09/05 17:12:53;;;;;;;;;;;;;;;;;;4951170;28;19927;-84
2021/09/05 17:15:22;;;;;;;;;;;;;;;;;;4946391;28;19926;-86
2021/09/05 17:17:51;;;;;;;;;;;;;;;;;;4963812;28;20303;-86
2021/09/05 17:20:21;;;;;;;;;;;;;;;;;;4964894;28;19926;-86
2021/09/05 17:22:50;;;;;;;;;;;;;;;;;;4944758;28;19930;-85
2021/09/05 17:25:19;;;;;;;;;;;;;;;;;;4950499;28;20395;-86
2021/09/05 17:27:47;;;;;;;;;;;;;;;;;;4990223;28;19926;-86
2021/09/05 17:30:15;;;;;;;;;;;;;;;;;;4953297;28;19929;-86
2021/09/05 17:32:44;;;;;;;;;;;;;;;;;;4941626;28;19926;-86
2021/09/05 17:35:12;;;;;;;;;;;;;;;;;;4945334;28;20411;-87
2021/09/05 17:37:43;;;;;;;;;;;;;;;;;;4944353;28;20032;-86
2021/09/05 17:40:14;;;;;;;;;;;;;;;;;;4963739;28;19937;-86
2021/09/05 17:42:43;;;;;;;;;;;;;;;;;;4952131;28;19926;-86
2021/09/05 17:45:12;;;;;;;;;;;;;;;;;;4951953;28;19933;-86
2021/09/05 17:47:40;;;;;;;;;;;;;;;;;;4968790;28;19926;-87
2021/09/05 17:50:09;;;;;;;;;;;;;;;;;;4957431;28;20133;-86
2021/09/05 17:52:37;;;;;;;;;;;;;;;;;;4962273;28;19937;-86
2021/09/05 18:03:35;;;;;;;;;;;;;;;;;;4967887;28;19929;-86
2021/09/05 18:06:07;;;;;;;;;;;;;;;;;;4966314;28;19930;-86
2021/09/05 18:08:35;;;;;;;;;;;;;;;;;;4960293;28;19933;-85
2021/09/05 18:11:06;;;;;;;;;;;;;;;;;;4955185;28;19952;-86
2021/09/05 18:13:35;;;;;;;;;;;;;;;;;;4954597;28;19945;-86
2021/09/05 18:16:03;;;;;;;;;;;;;;;;;;4969247;28;19932;-86
2021/09/05 18:21:40;;;;;;;;;;;;;;;;;;4975796;28;19934;-85
2021/09/05 18:24:11;;;;;;;;;;;;;;;;;;4953952;28;19930;-86
2021/09/05 18:26:41;;;;;;;;;;;;;;;;;;4977044;28;19933;-85